Floyd, VA (24091)

5:21 PM EDT on July 26, 2016 (GMT -0400)
APRSWXNET | | Change Station

Elev 2457 ft 36.91 °N, 80.32 °W | Updated 30 minutes ago

Scattered Clouds
Scattered Clouds
85 °F
Feels Like 91 °F
N
0
Wind Variable Wind from West
Gusts 6.0 mph

Today
High -- | Low -- °F
--% Chance of Precip.
Yesterday
High -- | Low -- °F
Precip. -- in
Pressure 30.07 in
Visibility 7.0 miles
Clouds Scattered Clouds 4800 ft
Scattered Clouds 6500 ft
Heat Index 91 °F
Dew Point 72 °F
Humidity 66%
Rainfall in
Snow Depth Not available.
6:22 AM 8:32 PM
Waning Gibbous, 51% visible
METAR KBCB 262115Z AUTO 28004KT 7SM SCT048 SCT065 32/21 A3007 RMK AO2 T03210214 TSNO
Pressure 30.07 in
Visibility 7.0 miles
Clouds Scattered Clouds 4800 ft
Scattered Clouds 6500 ft
Heat Index 91 °F
Dew Point 72 °F
Humidity 66%
Rainfall in
Snow Depth Not available.
6:22 AM 8:32 PM
Waning Gibbous, 51% visible
METAR KBCB 262115Z AUTO 28004KT 7SM SCT048 SCT065 32/21 A3007 RMK AO2 T03210214 TSNO

10-Day Weather Forecast

Almanac

Astronomy

Jul. 26, 2016 Rise Set
Actual Time
Civil Twilight
Nautical Twilight
Astronomical Twilight
Moon
Length of Visible Light
Length of Day
Tomorrow will be .
, % of the Moon is Illuminated

Today's Extremes

State Highs State Lows

Community

WunderPhotos

Upload Photos

1,927,702 photos uploaded!

WunderBlog® & News

Nearby

Air Quality

  Air Quality AQ Index Pollutant
Not available.

Snow Depth

Station Depth Elevation

Earthquake Activity

City Distance Mag. Time & Date
Minimum magnitude displayed is 2.5.

Coastal Water Temperatures

Place Temperature

Stations

Nearby Weather Stations

Station Location Temp. Windchill Dew Point Humidity Wind Precip. Elev Updated Type
                   

Watches & Warnings

There are currently no watches in effect.